sensor_id;sensor_type;location;lat;lon;timestamp;P1;durP1;ratioP1;P2;durP2;ratioP2
3543;SDS011;1786;52.870;9.578;2023-07-24T00:00:27;2.53;;;2.33;;
3543;SDS011;1786;52.870;9.578;2023-07-24T00:02:54;2.87;;;2.77;;
3543;SDS011;1786;52.870;9.578;2023-07-24T00:05:22;2.67;;;2.53;;
3543;SDS011;1786;52.870;9.578;2023-07-24T00:07:49;2.90;;;2.73;;
3543;SDS011;1786;52.870;9.578;2023-07-24T00:10:16;2.70;;;2.60;;
3543;SDS011;1786;52.870;9.578;2023-07-24T00:12:42;2.70;;;2.60;;
3543;SDS011;1786;52.870;9.578;2023-07-24T00:15:09;2.80;;;2.70;;
3543;SDS011;1786;52.870;9.578;2023-07-24T00:17:36;2.20;;;2.10;;
3543;SDS011;1786;52.870;9.578;2023-07-24T00:20:03;2.60;;;2.50;;
3543;SDS011;1786;52.870;9.578;2023-07-24T00:22:30;2.97;;;2.47;;
3543;SDS011;1786;52.870;9.578;2023-07-24T00:24:57;2.77;;;2.67;;
3543;SDS011;1786;52.870;9.578;2023-07-24T00:27:24;2.90;;;2.70;;
3543;SDS011;1786;52.870;9.578;2023-07-24T00:29:51;2.57;;;2.47;;
3543;SDS011;1786;52.870;9.578;2023-07-24T00:32:17;2.97;;;2.77;;
3543;SDS011;1786;52.870;9.578;2023-07-24T00:34:44;3.17;;;2.97;;
3543;SDS011;1786;52.870;9.578;2023-07-24T00:37:11;2.90;;;2.70;;
3543;SDS011;1786;52.870;9.578;2023-07-24T00:39:37;5.70;;;2.83;;
3543;SDS011;1786;52.870;9.578;2023-07-24T00:42:04;2.57;;;2.40;;
3543;SDS011;1786;52.870;9.578;2023-07-24T00:44:31;4.40;;;3.00;;
3543;SDS011;1786;52.870;9.578;2023-07-24T00:46:58;2.67;;;2.53;;
3543;SDS011;1786;52.870;9.578;2023-07-24T00:49:25;2.60;;;2.50;;
3543;SDS011;1786;52.870;9.578;2023-07-24T00:51:52;2.60;;;2.50;;
3543;SDS011;1786;52.870;9.578;2023-07-24T00:54:19;3.20;;;3.00;;
3543;SDS011;1786;52.870;9.578;2023-07-24T00:56:46;3.80;;;3.10;;
3543;SDS011;1786;52.870;9.578;2023-07-24T00:59:13;2.83;;;2.63;;
3543;SDS011;1786;52.870;9.578;2023-07-24T01:01:40;2.50;;;2.40;;
3543;SDS011;1786;52.870;9.578;2023-07-24T01:04:08;2.60;;;2.40;;
3543;SDS011;1786;52.870;9.578;2023-07-24T01:06:35;2.87;;;2.77;;
3543;SDS011;1786;52.870;9.578;2023-07-24T01:09:02;3.10;;;2.90;;
3543;SDS011;1786;52.870;9.578;2023-07-24T01:11:35;2.60;;;2.40;;
3543;SDS011;1786;52.870;9.578;2023-07-24T01:14:17;2.47;;;2.37;;
3543;SDS011;1786;52.870;9.578;2023-07-24T01:17:02;2.90;;;2.80;;
3543;SDS011;1786;52.870;9.578;2023-07-24T01:19:40;3.20;;;3.03;;
3543;SDS011;1786;52.870;9.578;2023-07-24T01:22:21;3.00;;;2.90;;
3543;SDS011;1786;52.870;9.578;2023-07-24T01:25:16;4.07;;;3.20;;
3543;SDS011;1786;52.870;9.578;2023-07-24T01:27:49;3.30;;;3.00;;
3543;SDS011;1786;52.870;9.578;2023-07-24T01:30:17;9.50;;;3.83;;
3543;SDS011;1786;52.870;9.578;2023-07-24T01:32:46;3.67;;;3.30;;
3543;SDS011;1786;52.870;9.578;2023-07-24T01:35:15;3.93;;;2.80;;
3543;SDS011;1786;52.870;9.578;2023-07-24T01:37:43;4.23;;;3.13;;
3543;SDS011;1786;52.870;9.578;2023-07-24T01:40:13;3.37;;;3.17;;
3543;SDS011;1786;52.870;9.578;2023-07-24T01:42:40;3.43;;;3.33;;
3543;SDS011;1786;52.870;9.578;2023-07-24T01:45:07;3.60;;;3.40;;
3543;SDS011;1786;52.870;9.578;2023-07-24T01:47:34;3.03;;;2.83;;
3543;SDS011;1786;52.870;9.578;2023-07-24T01:50:01;3.30;;;3.20;;
3543;SDS011;1786;52.870;9.578;2023-07-24T01:52:28;3.67;;;3.40;;
3543;SDS011;1786;52.870;9.578;2023-07-24T01:54:54;5.13;;;3.93;;
3543;SDS011;1786;52.870;9.578;2023-07-24T01:57:21;3.47;;;3.27;;
3543;SDS011;1786;52.870;9.578;2023-07-24T01:59:48;4.17;;;3.60;;
3543;SDS011;1786;52.870;9.578;2023-07-24T02:02:16;3.10;;;2.90;;
3543;SDS011;1786;52.870;9.578;2023-07-24T02:04:42;3.73;;;3.40;;
3543;SDS011;1786;52.870;9.578;2023-07-24T02:07:09;2.67;;;2.57;;
3543;SDS011;1786;52.870;9.578;2023-07-24T02:09:36;3.87;;;3.57;;
3543;SDS011;1786;52.870;9.578;2023-07-24T02:12:02;3.67;;;3.47;;
3543;SDS011;1786;52.870;9.578;2023-07-24T02:14:29;3.33;;;3.13;;
3543;SDS011;1786;52.870;9.578;2023-07-24T02:16:56;3.80;;;3.50;;
3543;SDS011;1786;52.870;9.578;2023-07-24T02:19:22;3.00;;;2.90;;
3543;SDS011;1786;52.870;9.578;2023-07-24T02:21:49;4.63;;;3.60;;
3543;SDS011;1786;52.870;9.578;2023-07-24T02:24:16;2.70;;;2.60;;
3543;SDS011;1786;52.870;9.578;2023-07-24T02:26:43;2.67;;;2.40;;
3543;SDS011;1786;52.870;9.578;2023-07-24T02:29:10;3.33;;;3.13;;
3543;SDS011;1786;52.870;9.578;2023-07-24T02:31:37;3.60;;;3.30;;
3543;SDS011;1786;52.870;9.578;2023-07-24T02:34:03;3.70;;;3.50;;
3543;SDS011;1786;52.870;9.578;2023-07-24T02:36:31;3.23;;;3.13;;
3543;SDS011;1786;52.870;9.578;2023-07-24T02:38:58;2.50;;;2.30;;
3543;SDS011;1786;52.870;9.578;2023-07-24T02:41:25;2.73;;;2.53;;
3543;SDS011;1786;52.870;9.578;2023-07-24T02:43:52;3.23;;;2.97;;
3543;SDS011;1786;52.870;9.578;2023-07-24T02:46:19;3.03;;;2.93;;
3543;SDS011;1786;52.870;9.578;2023-07-24T02:48:45;3.77;;;3.10;;
3543;SDS011;1786;52.870;9.578;2023-07-24T02:51:12;3.37;;;3.10;;
3543;SDS011;1786;52.870;9.578;2023-07-24T02:53:39;3.33;;;3.13;;
3543;SDS011;1786;52.870;9.578;2023-07-24T02:56:06;3.30;;;3.20;;
3543;SDS011;1786;52.870;9.578;2023-07-24T02:58:32;3.90;;;3.53;;
3543;SDS011;1786;52.870;9.578;2023-07-24T03:01:03;3.77;;;3.57;;
3543;SDS011;1786;52.870;9.578;2023-07-24T03:03:30;3.43;;;3.33;;
3543;SDS011;1786;52.870;9.578;2023-07-24T03:05:57;4.17;;;3.97;;
3543;SDS011;1786;52.870;9.578;2023-07-24T03:08:24;4.37;;;2.83;;
3543;SDS011;1786;52.870;9.578;2023-07-24T03:10:51;4.57;;;3.03;;
3543;SDS011;1786;52.870;9.578;2023-07-24T03:13:18;6.63;;;3.57;;
3543;SDS011;1786;52.870;9.578;2023-07-24T03:15:51;3.87;;;3.53;;
3543;SDS011;1786;52.870;9.578;2023-07-24T03:18:19;3.53;;;3.33;;
3543;SDS011;1786;52.870;9.578;2023-07-24T03:20:46;6.07;;;3.47;;
3543;SDS011;1786;52.870;9.578;2023-07-24T03:23:13;3.20;;;2.90;;
3543;SDS011;1786;52.870;9.578;2023-07-24T03:25:40;3.40;;;3.30;;
3543;SDS011;1786;52.870;9.578;2023-07-24T03:28:07;3.87;;;3.67;;
3543;SDS011;1786;52.870;9.578;2023-07-24T03:30:34;3.17;;;3.07;;
3543;SDS011;1786;52.870;9.578;2023-07-24T03:33:01;5.93;;;3.80;;
3543;SDS011;1786;52.870;9.578;2023-07-24T03:35:30;4.03;;;3.77;;
3543;SDS011;1786;52.870;9.578;2023-07-24T03:37:57;4.13;;;3.83;;
3543;SDS011;1786;52.870;9.578;2023-07-24T03:40:25;4.40;;;4.17;;
3543;SDS011;1786;52.870;9.578;2023-07-24T03:42:51;3.80;;;3.60;;
3543;SDS011;1786;52.870;9.578;2023-07-24T03:45:18;3.80;;;3.70;;
3543;SDS011;1786;52.870;9.578;2023-07-24T03:47:45;4.80;;;4.40;;
3543;SDS011;1786;52.870;9.578;2023-07-24T03:50:12;5.30;;;4.90;;
3543;SDS011;1786;52.870;9.578;2023-07-24T03:52:38;5.10;;;4.80;;
3543;SDS011;1786;52.870;9.578;2023-07-24T03:55:07;7.73;;;4.97;;
3543;SDS011;1786;52.870;9.578;2023-07-24T03:57:34;5.00;;;4.70;;
3543;SDS011;1786;52.870;9.578;2023-07-24T04:00:02;5.30;;;4.90;;
3543;SDS011;1786;52.870;9.578;2023-07-24T04:02:37;5.10;;;4.90;;
3543;SDS011;1786;52.870;9.578;2023-07-24T04:05:06;5.67;;;5.27;;
3543;SDS011;1786;52.870;9.578;2023-07-24T04:07:33;5.60;;;5.30;;
3543;SDS011;1786;52.870;9.578;2023-07-24T04:10:00;6.10;;;5.03;;
3543;SDS011;1786;52.870;9.578;2023-07-24T04:12:28;6.00;;;5.70;;
3543;SDS011;1786;52.870;9.578;2023-07-24T04:14:55;5.93;;;5.63;;
3543;SDS011;1786;52.870;9.578;2023-07-24T04:17:21;6.40;;;6.00;;
3543;SDS011;1786;52.870;9.578;2023-07-24T04:19:48;6.60;;;6.20;;
3543;SDS011;1786;52.870;9.578;2023-07-24T04:22:16;6.77;;;6.27;;
3543;SDS011;1786;52.870;9.578;2023-07-24T04:24:42;7.73;;;7.10;;
3543;SDS011;1786;52.870;9.578;2023-07-24T04:27:09;7.67;;;6.97;;
3543;SDS011;1786;52.870;9.578;2023-07-24T04:29:36;6.80;;;6.30;;
3543;SDS011;1786;52.870;9.578;2023-07-24T04:32:02;7.80;;;7.20;;
3543;SDS011;1786;52.870;9.578;2023-07-24T04:34:29;6.87;;;6.23;;
3543;SDS011;1786;52.870;9.578;2023-07-24T04:36:56;6.13;;;5.73;;
3543;SDS011;1786;52.870;9.578;2023-07-24T04:39:22;5.97;;;5.57;;
3543;SDS011;1786;52.870;9.578;2023-07-24T04:41:49;6.00;;;5.70;;
3543;SDS011;1786;52.870;9.578;2023-07-24T04:44:16;7.03;;;6.43;;
3543;SDS011;1786;52.870;9.578;2023-07-24T04:46:43;6.07;;;5.63;;
3543;SDS011;1786;52.870;9.578;2023-07-24T04:49:10;9.90;;;5.70;;
3543;SDS011;1786;52.870;9.578;2023-07-24T04:51:37;6.50;;;6.00;;
3543;SDS011;1786;52.870;9.578;2023-07-24T04:54:04;8.10;;;6.10;;
3543;SDS011;1786;52.870;9.578;2023-07-24T04:56:31;6.00;;;5.47;;
3543;SDS011;1786;52.870;9.578;2023-07-24T04:58:58;6.73;;;6.33;;
3543;SDS011;1786;52.870;9.578;2023-07-24T05:01:24;7.27;;;6.77;;
3543;SDS011;1786;52.870;9.578;2023-07-24T05:03:51;6.93;;;6.40;;
3543;SDS011;1786;52.870;9.578;2023-07-24T05:06:18;7.33;;;6.63;;
3543;SDS011;1786;52.870;9.578;2023-07-24T05:08:45;7.20;;;6.50;;
3543;SDS011;1786;52.870;9.578;2023-07-24T05:11:11;6.73;;;6.23;;
3543;SDS011;1786;52.870;9.578;2023-07-24T05:13:38;6.90;;;6.00;;
3543;SDS011;1786;52.870;9.578;2023-07-24T05:16:05;6.20;;;5.60;;
3543;SDS011;1786;52.870;9.578;2023-07-24T05:18:32;14.10;;;6.57;;
3543;SDS011;1786;52.870;9.578;2023-07-24T05:20:59;6.37;;;5.97;;
3543;SDS011;1786;52.870;9.578;2023-07-24T05:23:26;7.40;;;6.80;;
3543;SDS011;1786;52.870;9.578;2023-07-24T05:25:59;6.83;;;6.43;;
3543;SDS011;1786;52.870;9.578;2023-07-24T05:28:26;6.17;;;5.77;;
3543;SDS011;1786;52.870;9.578;2023-07-24T05:30:54;6.70;;;6.13;;
3543;SDS011;1786;52.870;9.578;2023-07-24T05:33:20;6.50;;;6.00;;
3543;SDS011;1786;52.870;9.578;2023-07-24T05:35:48;6.43;;;5.93;;
3543;SDS011;1786;52.870;9.578;2023-07-24T05:38:16;9.53;;;6.60;;
3543;SDS011;1786;52.870;9.578;2023-07-24T05:40:43;6.83;;;6.33;;
3543;SDS011;1786;52.870;9.578;2023-07-24T05:43:09;6.10;;;5.80;;
3543;SDS011;1786;52.870;9.578;2023-07-24T05:45:36;6.10;;;5.60;;
3543;SDS011;1786;52.870;9.578;2023-07-24T05:48:03;6.67;;;6.13;;
3543;SDS011;1786;52.870;9.578;2023-07-24T05:50:29;7.43;;;6.33;;
3543;SDS011;1786;52.870;9.578;2023-07-24T05:52:56;7.53;;;6.77;;
3543;SDS011;1786;52.870;9.578;2023-07-24T05:55:23;9.33;;;6.00;;
3543;SDS011;1786;52.870;9.578;2023-07-24T05:57:50;6.67;;;6.07;;
3543;SDS011;1786;52.870;9.578;2023-07-24T06:00:17;5.70;;;5.40;;
3543;SDS011;1786;52.870;9.578;2023-07-24T06:02:44;11.60;;;5.93;;
3543;SDS011;1786;52.870;9.578;2023-07-24T06:05:11;7.20;;;6.60;;
3543;SDS011;1786;52.870;9.578;2023-07-24T06:07:38;10.50;;;6.17;;
3543;SDS011;1786;52.870;9.578;2023-07-24T06:10:05;6.70;;;5.30;;
3543;SDS011;1786;52.870;9.578;2023-07-24T06:12:32;5.70;;;5.30;;
3543;SDS011;1786;52.870;9.578;2023-07-24T06:14:58;4.73;;;4.43;;
3543;SDS011;1786;52.870;9.578;2023-07-24T06:17:25;6.37;;;5.60;;
3543;SDS011;1786;52.870;9.578;2023-07-24T06:19:52;7.67;;;4.97;;
3543;SDS011;1786;52.870;9.578;2023-07-24T06:22:18;5.97;;;5.27;;
3543;SDS011;1786;52.870;9.578;2023-07-24T06:24:45;9.63;;;6.40;;
3543;SDS011;1786;52.870;9.578;2023-07-24T06:27:12;10.77;;;5.57;;
3543;SDS011;1786;52.870;9.578;2023-07-24T06:29:38;6.03;;;5.50;;
3543;SDS011;1786;52.870;9.578;2023-07-24T06:32:05;6.10;;;5.57;;
3543;SDS011;1786;52.870;9.578;2023-07-24T06:34:32;13.50;;;5.83;;
3543;SDS011;1786;52.870;9.578;2023-07-24T06:37:00;5.07;;;4.70;;
3543;SDS011;1786;52.870;9.578;2023-07-24T06:39:46;5.77;;;5.27;;
3543;SDS011;1786;52.870;9.578;2023-07-24T06:42:13;6.53;;;5.37;;
3543;SDS011;1786;52.870;9.578;2023-07-24T06:44:40;6.00;;;5.40;;
3543;SDS011;1786;52.870;9.578;2023-07-24T06:47:07;5.80;;;5.30;;
3543;SDS011;1786;52.870;9.578;2023-07-24T06:49:34;5.97;;;5.50;;
3543;SDS011;1786;52.870;9.578;2023-07-24T06:52:01;8.00;;;5.43;;
3543;SDS011;1786;52.870;9.578;2023-07-24T06:54:28;10.53;;;5.60;;
3543;SDS011;1786;52.870;9.578;2023-07-24T06:56:54;6.97;;;5.30;;
3543;SDS011;1786;52.870;9.578;2023-07-24T06:59:21;5.83;;;5.23;;
3543;SDS011;1786;52.870;9.578;2023-07-24T07:01:48;5.80;;;5.23;;
3543;SDS011;1786;52.870;9.578;2023-07-24T07:04:16;5.77;;;5.10;;
3543;SDS011;1786;52.870;9.578;2023-07-24T07:06:43;6.27;;;4.50;;
3543;SDS011;1786;52.870;9.578;2023-07-24T07:09:10;4.47;;;4.17;;
3543;SDS011;1786;52.870;9.578;2023-07-24T07:11:37;4.40;;;3.67;;
3543;SDS011;1786;52.870;9.578;2023-07-24T07:14:03;14.43;;;4.27;;
3543;SDS011;1786;52.870;9.578;2023-07-24T07:16:30;3.40;;;3.17;;
3543;SDS011;1786;52.870;9.578;2023-07-24T07:18:57;3.93;;;2.90;;
3543;SDS011;1786;52.870;9.578;2023-07-24T07:21:24;8.10;;;2.70;;
3543;SDS011;1786;52.870;9.578;2023-07-24T07:23:50;2.83;;;2.63;;
3543;SDS011;1786;52.870;9.578;2023-07-24T07:26:17;3.50;;;2.20;;
3543;SDS011;1786;52.870;9.578;2023-07-24T07:28:44;2.20;;;2.07;;
3543;SDS011;1786;52.870;9.578;2023-07-24T07:31:11;6.53;;;2.40;;
3543;SDS011;1786;52.870;9.578;2023-07-24T07:33:38;2.43;;;2.20;;
3543;SDS011;1786;52.870;9.578;2023-07-24T07:36:04;2.23;;;2.13;;
3543;SDS011;1786;52.870;9.578;2023-07-24T07:38:32;3.37;;;2.20;;
3543;SDS011;1786;52.870;9.578;2023-07-24T07:41:03;2.30;;;2.13;;
3543;SDS011;1786;52.870;9.578;2023-07-24T07:43:30;2.47;;;2.20;;
3543;SDS011;1786;52.870;9.578;2023-07-24T07:45:57;2.90;;;2.70;;
3543;SDS011;1786;52.870;9.578;2023-07-24T07:48:25;4.20;;;2.33;;
3543;SDS011;1786;52.870;9.578;2023-07-24T07:50:52;2.73;;;2.53;;
3543;SDS011;1786;52.870;9.578;2023-07-24T07:53:19;2.47;;;2.37;;
3543;SDS011;1786;52.870;9.578;2023-07-24T07:55:45;3.67;;;2.27;;
3543;SDS011;1786;52.870;9.578;2023-07-24T07:58:12;2.20;;;2.10;;
3543;SDS011;1786;52.870;9.578;2023-07-24T08:00:39;2.60;;;2.37;;
3543;SDS011;1786;52.870;9.578;2023-07-24T08:03:06;2.30;;;2.20;;
3543;SDS011;1786;52.870;9.578;2023-07-24T08:05:33;2.63;;;2.43;;
3543;SDS011;1786;52.870;9.578;2023-07-24T08:07:59;2.60;;;2.50;;
3543;SDS011;1786;52.870;9.578;2023-07-24T08:10:26;2.47;;;2.27;;
3543;SDS011;1786;52.870;9.578;2023-07-24T08:12:53;2.17;;;2.07;;
3543;SDS011;1786;52.870;9.578;2023-07-24T08:15:20;2.60;;;2.40;;
3543;SDS011;1786;52.870;9.578;2023-07-24T08:17:46;2.10;;;2.00;;
3543;SDS011;1786;52.870;9.578;2023-07-24T08:20:13;2.23;;;2.07;;
3543;SDS011;1786;52.870;9.578;2023-07-24T08:22:40;1.90;;;1.80;;
3543;SDS011;1786;52.870;9.578;2023-07-24T08:25:07;2.00;;;2.00;;
3543;SDS011;1786;52.870;9.578;2023-07-24T08:27:34;2.73;;;2.63;;
3543;SDS011;1786;52.870;9.578;2023-07-24T08:30:20;2.60;;;2.40;;
3543;SDS011;1786;52.870;9.578;2023-07-24T08:32:47;2.13;;;2.03;;
3543;SDS011;1786;52.870;9.578;2023-07-24T08:35:16;2.53;;;2.33;;
3543;SDS011;1786;52.870;9.578;2023-07-24T08:37:43;2.30;;;2.20;;
3543;SDS011;1786;52.870;9.578;2023-07-24T08:40:10;2.30;;;2.20;;
3543;SDS011;1786;52.870;9.578;2023-07-24T08:42:38;2.23;;;2.13;;
3543;SDS011;1786;52.870;9.578;2023-07-24T08:45:09;2.20;;;2.00;;
3543;SDS011;1786;52.870;9.578;2023-07-24T08:47:39;3.03;;;1.80;;
3543;SDS011;1786;52.870;9.578;2023-07-24T08:50:11;3.07;;;2.60;;
3543;SDS011;1786;52.870;9.578;2023-07-24T08:52:40;2.67;;;2.20;;
3543;SDS011;1786;52.870;9.578;2023-07-24T08:55:09;2.33;;;2.23;;
3543;SDS011;1786;52.870;9.578;2023-07-24T08:57:36;3.40;;;3.20;;
3543;SDS011;1786;52.870;9.578;2023-07-24T09:00:03;3.30;;;3.00;;
3543;SDS011;1786;52.870;9.578;2023-07-24T09:02:34;2.90;;;2.80;;
3543;SDS011;1786;52.870;9.578;2023-07-24T09:05:02;4.10;;;3.33;;
3543;SDS011;1786;52.870;9.578;2023-07-24T09:07:30;3.17;;;2.97;;
3543;SDS011;1786;52.870;9.578;2023-07-24T09:09:58;4.20;;;3.27;;
3543;SDS011;1786;52.870;9.578;2023-07-24T09:12:25;2.83;;;2.63;;
3543;SDS011;1786;52.870;9.578;2023-07-24T09:15:02;3.17;;;2.97;;
3543;SDS011;1786;52.870;9.578;2023-07-24T09:17:33;2.90;;;2.80;;
3543;SDS011;1786;52.870;9.578;2023-07-24T09:20:00;3.57;;;2.00;;
3543;SDS011;1786;52.870;9.578;2023-07-24T09:22:28;2.30;;;2.20;;
3543;SDS011;1786;52.870;9.578;2023-07-24T09:24:55;2.60;;;2.50;;
3543;SDS011;1786;52.870;9.578;2023-07-24T09:27:29;4.90;;;2.20;;
3543;SDS011;1786;52.870;9.578;2023-07-24T09:29:58;2.10;;;2.00;;
3543;SDS011;1786;52.870;9.578;2023-07-24T09:32:25;2.60;;;1.90;;
3543;SDS011;1786;52.870;9.578;2023-07-24T09:34:54;2.50;;;2.30;;
3543;SDS011;1786;52.870;9.578;2023-07-24T09:37:25;1.90;;;1.80;;
3543;SDS011;1786;52.870;9.578;2023-07-24T09:39:53;2.10;;;2.00;;
3543;SDS011;1786;52.870;9.578;2023-07-24T09:45:03;1.60;;;1.50;;
3543;SDS011;1786;52.870;9.578;2023-07-24T09:47:31;3.50;;;1.70;;
3543;SDS011;1786;52.870;9.578;2023-07-24T09:50:16;2.43;;;2.33;;
3543;SDS011;1786;52.870;9.578;2023-07-24T09:52:43;3.17;;;1.87;;
3543;SDS011;1786;52.870;9.578;2023-07-24T09:55:11;1.30;;;1.30;;
3543;SDS011;1786;52.870;9.578;2023-07-24T09:57:45;1.53;;;1.53;;
3543;SDS011;1786;52.870;9.578;2023-07-24T10:00:13;2.10;;;2.00;;
3543;SDS011;1786;52.870;9.578;2023-07-24T10:02:40;1.80;;;1.70;;
3543;SDS011;1786;52.870;9.578;2023-07-24T10:05:08;1.97;;;1.87;;
3543;SDS011;1786;52.870;9.578;2023-07-24T10:07:35;1.40;;;1.37;;
3543;SDS011;1786;52.870;9.578;2023-07-24T10:10:02;1.23;;;1.13;;
3543;SDS011;1786;52.870;9.578;2023-07-24T10:12:29;1.80;;;1.70;;
3543;SDS011;1786;52.870;9.578;2023-07-24T10:14:58;1.20;;;1.20;;
3543;SDS011;1786;52.870;9.578;2023-07-24T10:17:35;1.63;;;1.53;;
3543;SDS011;1786;52.870;9.578;2023-07-24T10:20:06;1.70;;;1.60;;
3543;SDS011;1786;52.870;9.578;2023-07-24T10:22:36;5.80;;;1.43;;
3543;SDS011;1786;52.870;9.578;2023-07-24T10:25:08;1.30;;;1.30;;
3543;SDS011;1786;52.870;9.578;2023-07-24T10:27:39;1.40;;;1.40;;
3543;SDS011;1786;52.870;9.578;2023-07-24T10:30:08;1.37;;;1.20;;
3543;SDS011;1786;52.870;9.578;2023-07-24T10:32:48;1.30;;;1.20;;
3543;SDS011;1786;52.870;9.578;2023-07-24T10:35:21;1.73;;;1.63;;
3543;SDS011;1786;52.870;9.578;2023-07-24T10:37:58;1.60;;;1.60;;
3543;SDS011;1786;52.870;9.578;2023-07-24T10:40:27;3.80;;;1.63;;
3543;SDS011;1786;52.870;9.578;2023-07-24T10:43:06;1.17;;;1.17;;
3543;SDS011;1786;52.870;9.578;2023-07-24T10:45:47;9.53;;;1.30;;
3543;SDS011;1786;52.870;9.578;2023-07-24T10:48:19;1.33;;;1.33;;
3543;SDS011;1786;52.870;9.578;2023-07-24T10:50:48;1.00;;;1.00;;
3543;SDS011;1786;52.870;9.578;2023-07-24T10:53:20;1.60;;;1.60;;
3543;SDS011;1786;52.870;9.578;2023-07-24T10:55:48;1.30;;;1.30;;
3543;SDS011;1786;52.870;9.578;2023-07-24T10:58:19;1.57;;;1.47;;
3543;SDS011;1786;52.870;9.578;2023-07-24T11:00:45;1.77;;;1.70;;
3543;SDS011;1786;52.870;9.578;2023-07-24T11:03:14;1.30;;;1.30;;
3543;SDS011;1786;52.870;9.578;2023-07-24T11:05:42;1.63;;;1.57;;
3543;SDS011;1786;52.870;9.578;2023-07-24T11:08:11;5.80;;;1.50;;
3543;SDS011;1786;52.870;9.578;2023-07-24T11:10:48;1.70;;;1.60;;
3543;SDS011;1786;52.870;9.578;2023-07-24T11:13:17;1.40;;;1.40;;
3543;SDS011;1786;52.870;9.578;2023-07-24T11:15:45;1.50;;;1.40;;
3543;SDS011;1786;52.870;9.578;2023-07-24T11:18:13;2.10;;;1.60;;
3543;SDS011;1786;52.870;9.578;2023-07-24T11:20:43;1.80;;;1.50;;
3543;SDS011;1786;52.870;9.578;2023-07-24T11:23:12;4.50;;;1.53;;
3543;SDS011;1786;52.870;9.578;2023-07-24T11:25:39;1.10;;;1.10;;
3543;SDS011;1786;52.870;9.578;2023-07-24T11:28:07;2.57;;;1.20;;
3543;SDS011;1786;52.870;9.578;2023-07-24T11:30:36;1.17;;;1.17;;
3543;SDS011;1786;52.870;9.578;2023-07-24T11:33:03;1.43;;;1.43;;
3543;SDS011;1786;52.870;9.578;2023-07-24T11:35:31;1.80;;;1.70;;
3543;SDS011;1786;52.870;9.578;2023-07-24T11:37:59;2.87;;;1.50;;
3543;SDS011;1786;52.870;9.578;2023-07-24T11:40:32;1.50;;;1.50;;
3543;SDS011;1786;52.870;9.578;2023-07-24T11:43:02;2.03;;;1.93;;
3543;SDS011;1786;52.870;9.578;2023-07-24T11:45:29;1.40;;;1.40;;
3543;SDS011;1786;52.870;9.578;2023-07-24T11:47:57;5.33;;;1.50;;
3543;SDS011;1786;52.870;9.578;2023-07-24T11:50:24;1.43;;;1.43;;
3543;SDS011;1786;52.870;9.578;2023-07-24T11:52:51;1.50;;;1.50;;
3543;SDS011;1786;52.870;9.578;2023-07-24T11:55:40;1.60;;;1.53;;
3543;SDS011;1786;52.870;9.578;2023-07-24T11:58:05;2.03;;;2.03;;
3543;SDS011;1786;52.870;9.578;2023-07-24T12:00:33;1.47;;;1.43;;
3543;SDS011;1786;52.870;9.578;2023-07-24T12:03:03;3.10;;;1.47;;
3543;SDS011;1786;52.870;9.578;2023-07-24T12:05:37;1.97;;;1.87;;
3543;SDS011;1786;52.870;9.578;2023-07-24T12:08:05;1.67;;;1.67;;
3543;SDS011;1786;52.870;9.578;2023-07-24T12:10:31;3.40;;;2.10;;
3543;SDS011;1786;52.870;9.578;2023-07-24T12:13:01;8.43;;;2.50;;
3543;SDS011;1786;52.870;9.578;2023-07-24T12:15:28;1.90;;;1.80;;
3543;SDS011;1786;52.870;9.578;2023-07-24T12:17:55;1.97;;;1.87;;
3543;SDS011;1786;52.870;9.578;2023-07-24T12:20:23;2.20;;;1.97;;
3543;SDS011;1786;52.870;9.578;2023-07-24T12:22:49;2.30;;;2.20;;
3543;SDS011;1786;52.870;9.578;2023-07-24T12:25:16;3.27;;;2.43;;
3543;SDS011;1786;52.870;9.578;2023-07-24T12:27:43;2.60;;;2.40;;
3543;SDS011;1786;52.870;9.578;2023-07-24T12:30:10;3.17;;;2.97;;
3543;SDS011;1786;52.870;9.578;2023-07-24T12:32:36;2.67;;;2.57;;
3543;SDS011;1786;52.870;9.578;2023-07-24T12:35:03;2.10;;;2.00;;
3543;SDS011;1786;52.870;9.578;2023-07-24T12:37:31;2.60;;;2.40;;
3543;SDS011;1786;52.870;9.578;2023-07-24T12:39:58;2.90;;;2.30;;
3543;SDS011;1786;52.870;9.578;2023-07-24T12:42:24;3.03;;;2.83;;
3543;SDS011;1786;52.870;9.578;2023-07-24T12:44:51;5.70;;;2.73;;
3543;SDS011;1786;52.870;9.578;2023-07-24T12:47:18;2.57;;;2.47;;
3543;SDS011;1786;52.870;9.578;2023-07-24T12:49:45;3.03;;;2.43;;
3543;SDS011;1786;52.870;9.578;2023-07-24T12:52:11;2.50;;;2.40;;
3543;SDS011;1786;52.870;9.578;2023-07-24T12:54:38;2.80;;;2.60;;
3543;SDS011;1786;52.870;9.578;2023-07-24T12:57:26;3.90;;;2.90;;
3543;SDS011;1786;52.870;9.578;2023-07-24T12:59:52;3.17;;;2.97;;
3543;SDS011;1786;52.870;9.578;2023-07-24T13:02:19;3.23;;;3.03;;
3543;SDS011;1786;52.870;9.578;2023-07-24T13:04:46;3.40;;;2.70;;
3543;SDS011;1786;52.870;9.578;2023-07-24T13:07:13;2.70;;;2.50;;
3543;SDS011;1786;52.870;9.578;2023-07-24T13:09:39;3.00;;;2.80;;
3543;SDS011;1786;52.870;9.578;2023-07-24T13:12:06;2.40;;;2.20;;
3543;SDS011;1786;52.870;9.578;2023-07-24T13:14:34;4.10;;;2.13;;
3543;SDS011;1786;52.870;9.578;2023-07-24T13:17:00;2.53;;;2.43;;
3543;SDS011;1786;52.870;9.578;2023-07-24T13:19:27;2.47;;;2.37;;
3543;SDS011;1786;52.870;9.578;2023-07-24T13:21:54;2.73;;;2.63;;
3543;SDS011;1786;52.870;9.578;2023-07-24T13:24:20;2.60;;;2.40;;
3543;SDS011;1786;52.870;9.578;2023-07-24T13:26:47;2.30;;;2.10;;
3543;SDS011;1786;52.870;9.578;2023-07-24T13:29:14;2.43;;;2.33;;
3543;SDS011;1786;52.870;9.578;2023-07-24T13:31:41;2.70;;;2.00;;
3543;SDS011;1786;52.870;9.578;2023-07-24T13:34:10;3.93;;;2.73;;
3543;SDS011;1786;52.870;9.578;2023-07-24T13:36:36;2.37;;;2.27;;
3543;SDS011;1786;52.870;9.578;2023-07-24T13:39:03;2.10;;;2.00;;
3543;SDS011;1786;52.870;9.578;2023-07-24T13:41:30;2.70;;;2.20;;
3543;SDS011;1786;52.870;9.578;2023-07-24T13:43:57;1.90;;;1.80;;
3543;SDS011;1786;52.870;9.578;2023-07-24T13:46:23;2.90;;;2.63;;
3543;SDS011;1786;52.870;9.578;2023-07-24T13:48:50;2.70;;;2.40;;
3543;SDS011;1786;52.870;9.578;2023-07-24T13:51:17;3.30;;;3.10;;
3543;SDS011;1786;52.870;9.578;2023-07-24T13:53:44;2.40;;;2.20;;
3543;SDS011;1786;52.870;9.578;2023-07-24T13:56:13;5.10;;;2.40;;
3543;SDS011;1786;52.870;9.578;2023-07-24T13:58:41;2.70;;;2.60;;
3543;SDS011;1786;52.870;9.578;2023-07-24T14:01:07;2.23;;;2.13;;
3543;SDS011;1786;52.870;9.578;2023-07-24T14:03:34;2.60;;;2.50;;
3543;SDS011;1786;52.870;9.578;2023-07-24T14:06:01;2.27;;;2.17;;
3543;SDS011;1786;52.870;9.578;2023-07-24T14:08:28;2.97;;;2.40;;
3543;SDS011;1786;52.870;9.578;2023-07-24T14:10:54;2.70;;;2.50;;
3543;SDS011;1786;52.870;9.578;2023-07-24T14:13:21;2.40;;;2.30;;
3543;SDS011;1786;52.870;9.578;2023-07-24T14:15:48;2.50;;;2.40;;
3543;SDS011;1786;52.870;9.578;2023-07-24T14:18:14;2.40;;;2.30;;
3543;SDS011;1786;52.870;9.578;2023-07-24T14:20:41;2.37;;;2.30;;
3543;SDS011;1786;52.870;9.578;2023-07-24T14:23:08;3.03;;;2.83;;
3543;SDS011;1786;52.870;9.578;2023-07-24T14:25:34;2.67;;;2.57;;
3543;SDS011;1786;52.870;9.578;2023-07-24T14:28:01;4.10;;;2.70;;
3543;SDS011;1786;52.870;9.578;2023-07-24T14:30:28;2.80;;;2.60;;
3543;SDS011;1786;52.870;9.578;2023-07-24T14:32:55;2.30;;;2.20;;
3543;SDS011;1786;52.870;9.578;2023-07-24T14:35:22;2.93;;;2.83;;
3543;SDS011;1786;52.870;9.578;2023-07-24T14:37:49;6.37;;;2.80;;
3543;SDS011;1786;52.870;9.578;2023-07-24T14:40:15;3.17;;;2.87;;
3543;SDS011;1786;52.870;9.578;2023-07-24T14:42:42;2.90;;;2.70;;
3543;SDS011;1786;52.870;9.578;2023-07-24T14:45:09;3.07;;;2.87;;
3543;SDS011;1786;52.870;9.578;2023-07-24T14:47:36;2.50;;;2.40;;
3543;SDS011;1786;52.870;9.578;2023-07-24T14:50:03;2.93;;;2.83;;
3543;SDS011;1786;52.870;9.578;2023-07-24T14:52:30;3.07;;;2.90;;
3543;SDS011;1786;52.870;9.578;2023-07-24T14:54:57;2.70;;;2.60;;
3543;SDS011;1786;52.870;9.578;2023-07-24T14:57:24;3.33;;;3.20;;
3543;SDS011;1786;52.870;9.578;2023-07-24T14:59:52;3.07;;;2.87;;
3543;SDS011;1786;52.870;9.578;2023-07-24T15:02:19;3.47;;;2.60;;
3543;SDS011;1786;52.870;9.578;2023-07-24T15:04:46;3.10;;;2.60;;
3543;SDS011;1786;52.870;9.578;2023-07-24T15:07:13;2.50;;;2.40;;
3543;SDS011;1786;52.870;9.578;2023-07-24T15:09:40;3.13;;;2.60;;
3543;SDS011;1786;52.870;9.578;2023-07-24T15:12:07;2.63;;;2.53;;
3543;SDS011;1786;52.870;9.578;2023-07-24T15:14:34;3.10;;;2.90;;
3543;SDS011;1786;52.870;9.578;2023-07-24T15:17:00;3.73;;;3.47;;
3543;SDS011;1786;52.870;9.578;2023-07-24T15:19:27;2.77;;;2.67;;
3543;SDS011;1786;52.870;9.578;2023-07-24T15:21:54;4.73;;;3.20;;